This is the latest recevied weather packets stored in our database for station/object AA7DG. If no packets are shown the sender has not sent any weather packets the latest 10 day(s).
| Time | Temp. | Humidity | Pressure | Rain* | Wind** | Luminosity | Snow |
|---|---|---|---|---|---|---|---|
| 1777610702 | 13.33° C | 53% | 1019 hPa | - | - | - | - |
| 1777610406 | 13.89° C | 52% | 1019 hPa | - | - | - | - |
| 1777609201 | 14.44° C | 49% | 1019 hPa | - | - | - | - |
| 1777607701 | 15.56° C | 45% | 1018.6 hPa | - | - | - | - |
| 1777603502 | 21.11° C | 32% | 1018.3 hPa | - | - | - | - |
| 1777602911 | 21.67° C | 26% | 1018 hPa | - | - | - | - |
| 1777602600 | 21.67° C | 25% | 1018 hPa | - | - | - | - |
| 1777601401 | 22.22° C | 24% | 1018.3 hPa | - | - | - | - |
| 1777601100 | 22.22° C | 23% | 1018.3 hPa | - | - | - | - |
| 1777600808 | 22.22° C | 24% | 1018.3 hPa | - | - | - | - |
| 1777599901 | 22.78° C | 23% | 1018.3 hPa | - | - | - | - |
| 1777599007 | 22.78° C | 23% | 1018.3 hPa | - | - | - | - |
| 1777597807 | 23.33° C | 22% | 1018.3 hPa | - | - | - | - |
| 1777595106 | 23.89° C | 21% | 1018.6 hPa | - | - | - | - |
| 1777594801 | 24.44° C | 20% | 1018.6 hPa | - | - | - | - |
| 1777594201 | 24.44° C | 19% | 1018.6 hPa | - | - | - | - |
| 1777592407 | 23.33° C | 21% | 1019 hPa | - | - | - | - |
| 1777591201 | 23.33° C | 21% | 1019.3 hPa | - | - | - | - |
| 1777585501 | 22.78° C | 22% | 1020.3 hPa | - | - | - | - |
| 1777584901 | 22.78° C | 22% | 1020.3 hPa | - | - | - | - |
| 1777582806 | 23.33° C | 23% | 1020.7 hPa | - | - | - | - |
| 1777582506 | 22.78° C | 23% | 1020.7 hPa | - | - | - | - |
| 1777581301 | 22.78° C | 25% | 1021 hPa | - | - | - | - |
| 1777579201 | 22.78° C | 26% | 1021.3 hPa | - | - | - | - |
| 1777578301 | 21.67° C | 27% | 1021.4 hPa | - | - | - | - |
* Rain since midnight (hover to see other rain measurements)
** Current wind speed in m/s (hover to see current wind gust speed)